Time;durP1;ratioP1;P1;durP2;ratioP2;P2;SDS_P1;SDS_P2;PMS_P1;PMS_P2;Temp;Humidity;BMP_temperature;BMP_pressure;BME280_temperature;BME280_humidity;BME280_pressure;Samples;Min_cycle;Max_cycle;Signal;HPM_P1;HPM_P2
2024/01/28 00:01:51;;;;;;;3.13;2.20;;;;;;;8.37;54.25;95589.47;5111522;28;20197;-66
2024/01/28 00:04:18;;;;;;;2.33;2.00;;;;;;;8.16;54.09;95563.69;5111714;28;20199;-67
2024/01/28 00:06:45;;;;;;;4.83;2.37;;;;;;;8.37;54.31;95602.22;5111890;28;20200;-67
2024/01/28 00:09:13;;;;;;;2.17;2.00;;;;;;;8.22;54.20;95576.00;5111745;28;20192;-67
2024/01/28 00:11:42;;;;;;;2.23;2.10;;;;;;;8.37;53.76;95597.13;5111672;28;20185;-65
2024/01/28 00:14:09;;;;;;;3.60;2.23;;;;;;;8.37;54.23;95599.66;5111824;28;20177;-69
2024/01/28 00:16:36;;;;;;;2.93;2.60;;;;;;;8.31;54.34;95597.50;5106446;28;20188;-63
2024/01/28 00:19:04;;;;;;;3.33;2.10;;;;;;;8.36;54.40;95610.75;5093913;28;20185;-68
2024/01/28 00:21:31;;;;;;;2.40;2.20;;;;;;;8.32;54.39;95603.41;5111397;28;20526;-66
2024/01/28 00:23:59;;;;;;;4.90;2.47;;;;;;;8.34;54.29;95601.59;5111176;28;20678;-68
2024/01/28 00:26:28;;;;;;;4.00;2.30;;;;;;;8.36;54.58;95609.94;5111241;28;20185;-63
2024/01/28 00:28:54;;;;;;;3.53;2.40;;;;;;;8.36;54.41;95617.59;5111375;28;20193;-66
2024/01/28 00:31:21;;;;;;;3.13;2.20;;;;;;;8.10;54.35;95569.16;5111147;28;20265;-67
2024/01/28 00:33:48;;;;;;;4.10;2.23;;;;;;;8.34;54.46;95614.34;5111428;28;20189;-64
2024/01/28 00:36:16;;;;;;;3.00;2.10;;;;;;;7.95;54.46;95554.91;5111152;28;20185;-67
2024/01/28 00:38:42;;;;;;;2.30;2.10;;;;;;;8.32;54.64;95613.59;5110765;28;20660;-67
2024/01/28 00:41:09;;;;;;;2.80;2.50;;;;;;;8.29;54.48;95612.91;5111290;28;20189;-68
2024/01/28 00:43:37;;;;;;;2.83;2.27;;;;;;;8.28;54.49;95616.34;5111188;28;20193;-68
2024/01/28 00:46:04;;;;;;;5.50;2.43;;;;;;;8.27;54.59;95614.72;5110916;28;20189;-66
2024/01/28 00:48:31;;;;;;;6.20;2.53;;;;;;;8.27;54.68;95612.19;5111197;28;20177;-71
2024/01/28 00:50:58;;;;;;;2.33;2.13;;;;;;;8.20;54.73;95603.31;5111811;28;20316;-66
2024/01/28 00:53:24;;;;;;;2.70;2.33;;;;;;;8.26;54.76;95610.56;5112064;28;20718;-69
2024/01/28 00:55:51;;;;;;;2.87;2.43;;;;;;;8.15;54.79;95600.22;5111244;28;20666;-68
2024/01/28 00:58:18;;;;;;;2.40;2.17;;;;;;;8.23;54.70;95623.47;5110440;28;20196;-68
2024/01/28 01:00:46;;;;;;;2.50;2.30;;;;;;;8.20;54.77;95617.78;5110948;28;20193;-66
2024/01/28 01:03:14;;;;;;;2.10;2.00;;;;;;;8.22;54.91;95626.97;5094654;28;20231;-67
2024/01/28 01:05:41;;;;;;;4.60;2.83;;;;;;;8.23;54.87;95630.31;5090907;28;20224;-67
2024/01/28 01:08:08;;;;;;;6.07;2.77;;;;;;;8.22;54.84;95639.69;5098862;28;20641;-64
2024/01/28 01:10:35;;;;;;;5.33;2.50;;;;;;;8.22;54.98;95629.50;5123642;28;20217;-65
2024/01/28 01:13:02;;;;;;;3.83;2.43;;;;;;;8.23;55.00;95627.78;5113391;28;20193;-64
2024/01/28 01:15:29;;;;;;;4.03;2.57;;;;;;;8.22;55.01;95631.25;5110385;28;20310;-64
2024/01/28 01:17:58;;;;;;;3.90;2.40;;;;;;;8.22;54.97;95628.69;5110024;28;20620;-68
2024/01/28 01:20:24;;;;;;;4.43;2.83;;;;;;;8.22;55.02;95624.41;5110715;28;20184;-67
2024/01/28 01:22:53;;;;;;;3.60;2.53;;;;;;;8.02;55.18;95599.41;5109868;28;20192;-68
2024/01/28 01:25:20;;;;;;;6.20;2.80;;;;;;;8.21;55.15;95622.78;5110324;28;20699;-66
2024/01/28 01:27:48;;;;;;;3.10;2.17;;;;;;;8.19;55.05;95622.06;5110259;28;20638;-68
2024/01/28 01:30:16;;;;;;;3.60;2.80;;;;;;;7.95;55.17;95580.38;5109868;28;20209;-67
2024/01/28 01:32:43;;;;;;;3.93;2.60;;;;;;;8.12;55.27;95617.44;5109735;28;20662;-67
2024/01/28 01:35:12;;;;;;;2.77;2.27;;;;;;;8.06;55.05;95608.47;5109558;28;20299;-67
2024/01/28 01:37:39;;;;;;;3.87;2.40;;;;;;;8.16;55.15;95622.28;5109855;28;20250;-69
2024/01/28 01:40:07;;;;;;;5.17;2.50;;;;;;;8.09;55.24;95610.84;5110031;28;20185;-65
2024/01/28 01:42:34;;;;;;;3.63;2.27;;;;;;;8.13;55.21;95625.00;5110371;28;20250;-67
2024/01/28 01:45:01;;;;;;;3.40;2.33;;;;;;;8.13;55.30;95622.47;5109923;28;20219;-68
2024/01/28 01:47:28;;;;;;;4.97;2.77;;;;;;;8.05;55.32;95612.75;5110062;28;20189;-67
2024/01/28 01:49:56;;;;;;;2.80;2.50;;;;;;;8.10;55.42;95625.19;5109506;28;20184;-66
2024/01/28 01:52:24;;;;;;;3.87;2.70;;;;;;;8.06;55.63;95616.13;5110408;28;20212;-67
2024/01/28 01:54:54;;;;;;;5.47;2.43;;;;;;;7.92;55.59;95596.66;5109639;28;20192;-68
2024/01/28 01:57:21;;;;;;;4.87;2.90;;;;;;;8.01;55.57;95616.44;5109978;28;20228;-67
2024/01/28 01:59:50;;;;;;;4.50;2.70;;;;;;;7.89;55.69;95596.84;5109888;28;20177;-69
2024/01/28 02:02:18;;;;;;;4.00;2.40;;;;;;;8.03;55.61;95618.88;5109789;28;20193;-67
2024/01/28 02:04:45;;;;;;;3.23;2.60;;;;;;;8.02;55.72;95632.53;5109457;28;20195;-69
2024/01/28 02:07:12;;;;;;;2.80;2.57;;;;;;;7.97;55.65;95621.81;5109947;28;20189;-68
2024/01/28 02:09:40;;;;;;;2.73;2.53;;;;;;;7.96;55.70;95628.66;5109940;28;20180;-67
2024/01/28 02:12:07;;;;;;;4.33;2.40;;;;;;;7.99;55.68;95632.75;5109901;28;20224;-67
2024/01/28 02:14:34;;;;;;;4.60;2.60;;;;;;;7.94;55.76;95627.09;5109589;28;20196;-65
2024/01/28 02:17:01;;;;;;;3.73;2.37;;;;;;;7.97;55.91;95627.72;5109479;28;20299;-68
2024/01/28 02:19:29;;;;;;;4.77;3.03;;;;;;;7.79;55.72;95614.44;5109787;28;20212;-68
2024/01/28 02:21:55;;;;;;;3.77;2.67;;;;;;;7.94;55.76;95638.09;5109495;28;20189;-68
2024/01/28 02:24:23;;;;;;;4.90;2.57;;;;;;;7.59;55.95;95588.63;5109632;28;20181;-67
2024/01/28 02:26:50;;;;;;;3.90;2.27;;;;;;;7.82;55.88;95616.00;5109680;28;20177;-66
2024/01/28 02:29:17;;;;;;;4.33;2.73;;;;;;;7.92;55.94;95634.84;5109992;28;20181;-63
2024/01/28 02:31:45;;;;;;;5.33;2.13;;;;;;;7.69;55.92;95615.13;5109077;28;20272;-64
2024/01/28 02:34:12;;;;;;;3.53;2.27;;;;;;;7.89;55.95;95647.78;5109545;28;20193;-68
2024/01/28 02:36:39;;;;;;;4.10;2.50;;;;;;;7.90;55.85;95651.97;5109353;28;20578;-68
2024/01/28 02:39:06;;;;;;;4.13;2.50;;;;;;;7.90;56.02;95644.34;5109767;28;20238;-65
2024/01/28 02:41:34;;;;;;;3.47;2.67;;;;;;;7.90;56.12;95649.44;5109170;28;20193;-64
2024/01/28 02:44:01;;;;;;;8.13;2.50;;;;;;;7.81;56.09;95637.25;5109325;28;20185;-66
2024/01/28 02:46:27;;;;;;;4.23;2.60;;;;;;;7.87;56.10;95661.53;5109261;28;20241;-68
2024/01/28 02:48:54;;;;;;;3.63;2.43;;;;;;;7.91;56.03;95673.16;5112966;28;20181;-66
2024/01/28 02:51:21;;;;;;;5.00;3.00;;;;;;;7.81;56.17;95652.53;5113188;28;20200;-67
2024/01/28 02:53:48;;;;;;;3.33;2.67;;;;;;;7.82;55.93;95649.09;5112891;28;20188;-63
2024/01/28 02:56:15;;;;;;;3.43;2.60;;;;;;;7.91;56.06;95670.63;5112989;28;20270;-67
2024/01/28 02:58:43;;;;;;;5.17;2.80;;;;;;;7.84;56.14;95654.06;5112814;28;20192;-64
2024/01/28 03:01:09;;;;;;;6.67;2.63;;;;;;;7.86;55.96;95652.25;5112596;28;20645;-66
2024/01/28 03:03:36;;;;;;;4.67;2.67;;;;;;;7.89;56.31;95670.69;5112079;28;20185;-66
2024/01/28 03:06:04;;;;;;;4.60;2.80;;;;;;;7.88;56.20;95674.16;5110822;28;20619;-69
2024/01/28 03:08:31;;;;;;;3.53;2.60;;;;;;;7.88;56.15;95673.34;5112814;28;20185;-68
2024/01/28 03:10:59;;;;;;;5.37;2.93;;;;;;;7.89;56.24;95680.06;5113509;28;20223;-66
2024/01/28 03:13:26;;;;;;;3.77;2.37;;;;;;;7.84;56.28;95677.81;5112270;28;20683;-64
2024/01/28 03:15:55;;;;;;;5.33;2.73;;;;;;;7.83;56.15;95678.72;5112801;28;20212;-64
2024/01/28 03:18:21;;;;;;;3.27;2.90;;;;;;;7.87;56.35;95687.00;5112691;28;20242;-64
2024/01/28 03:20:48;;;;;;;2.77;2.50;;;;;;;7.87;56.35;95689.53;5112630;28;20189;-65
2024/01/28 03:23:15;;;;;;;4.83;2.80;;;;;;;7.87;56.38;95695.44;5112338;28;20195;-66
2024/01/28 03:25:43;;;;;;;3.67;2.67;;;;;;;7.86;56.29;95695.53;5112383;28;20196;-66
2024/01/28 03:28:09;;;;;;;3.27;2.43;;;;;;;7.65;56.35;95657.78;5112841;28;20308;-67
2024/01/28 03:30:36;;;;;;;4.83;2.67;;;;;;;7.85;56.28;95688.81;5112321;28;20220;-64
2024/01/28 03:33:05;;;;;;;3.00;2.70;;;;;;;7.84;56.32;95692.28;5112317;28;20193;-66
2024/01/28 03:35:31;;;;;;;3.27;2.43;;;;;;;7.76;56.37;95683.38;5112449;28;20189;-65
2024/01/28 03:37:58;;;;;;;5.33;2.57;;;;;;;7.84;56.46;95703.28;5112480;28;20336;-67
2024/01/28 03:40:26;;;;;;;3.07;2.30;;;;;;;7.45;56.33;95637.84;5112482;28;20200;-67
2024/01/28 03:42:53;;;;;;;2.57;2.37;;;;;;;7.75;56.50;95686.03;5112319;28;20212;-67
2024/01/28 03:45:20;;;;;;;2.60;2.40;;;;;;;7.82;56.46;95700.03;5112160;28;20207;-66
2024/01/28 03:47:46;;;;;;;4.43;2.97;;;;;;;7.46;56.50;95644.56;5113278;28;20204;-68
2024/01/28 03:50:19;;;;;;;4.43;2.80;;;;;;;7.80;56.38;95705.19;5123191;28;20713;-66
2024/01/28 03:52:46;;;;;;;3.60;2.50;;;;;;;7.79;56.45;95707.84;5114291;28;20228;-65
2024/01/28 03:55:13;;;;;;;10.80;2.57;;;;;;;7.74;56.43;95704.78;5111605;28;20225;-67
2024/01/28 03:57:40;;;;;;;4.97;2.87;;;;;;;7.75;56.64;95706.41;5111188;28;20705;-67
2024/01/28 04:00:11;;;;;;;3.37;2.83;;;;;;;7.52;56.60;95685.75;5112059;28;20193;-68
2024/01/28 04:02:38;;;;;;;4.40;3.00;;;;;;;7.70;56.63;95721.97;5111969;28;20283;-67
2024/01/28 04:05:05;;;;;;;5.30;2.73;;;;;;;7.67;56.63;95719.59;5111592;28;20185;-67
2024/01/28 04:07:34;;;;;;;6.23;3.07;;;;;;;7.64;56.79;95714.72;5111409;28;20188;-68
2024/01/28 04:10:00;;;;;;;3.10;2.50;;;;;;;7.56;56.74;95718.66;5111739;28;20189;-69
2024/01/28 04:12:27;;;;;;;6.67;3.20;;;;;;;7.59;56.83;95739.63;5111240;28;20708;-68
2024/01/28 04:14:54;;;;;;;3.27;2.30;;;;;;;7.56;56.77;95733.91;5111631;28;20193;-65
2024/01/28 04:17:21;;;;;;;2.60;2.40;;;;;;;7.33;56.85;95712.38;5111078;28;20268;-65
2024/01/28 04:19:48;;;;;;;5.50;2.80;;;;;;;7.34;56.81;95719.94;5111205;28;20220;-65
2024/01/28 04:22:15;;;;;;;6.57;3.30;;;;;;;7.37;57.04;95731.66;5111262;28;20533;-65
2024/01/28 04:24:44;;;;;;;3.70;2.57;;;;;;;7.37;57.04;95739.28;5111430;28;20193;-67
2024/01/28 04:27:10;;;;;;;5.47;3.50;;;;;;;7.32;57.02;95739.56;5111291;28;20181;-63
2024/01/28 04:29:37;;;;;;;3.77;3.40;;;;;;;7.35;57.21;95752.09;5111153;28;20189;-68
2024/01/28 04:32:05;;;;;;;5.23;2.87;;;;;;;7.32;57.11;95754.00;5110596;28;20224;-67
2024/01/28 04:34:31;;;;;;;2.87;2.50;;;;;;;6.60;57.11;95654.00;5111426;28;20231;-68
2024/01/28 04:36:58;;;;;;;5.70;2.83;;;;;;;7.24;57.25;95760.38;5111244;28;20185;-68
2024/01/28 04:39:25;;;;;;;2.87;2.53;;;;;;;7.21;57.28;95769.91;5112455;28;20177;-68
2024/01/28 04:41:53;;;;;;;5.43;3.00;;;;;;;7.18;57.29;95757.38;5111543;28;20242;-67
2024/01/28 04:44:20;;;;;;;5.37;2.73;;;;;;;7.16;57.36;95762.53;5110415;28;20234;-66
2024/01/28 04:46:48;;;;;;;3.27;2.77;;;;;;;7.14;57.46;95763.56;5111262;28;20193;-67
2024/01/28 04:49:15;;;;;;;4.50;3.33;;;;;;;6.79;57.42;95713.84;5110975;28;20193;-64
2024/01/28 04:51:42;;;;;;;3.60;2.77;;;;;;;7.01;57.46;95749.00;5110778;28;20216;-67
2024/01/28 04:54:09;;;;;;;4.00;2.40;;;;;;;7.04;57.80;95761.56;5110500;28;20185;-67
2024/01/28 04:56:36;;;;;;;5.87;3.20;;;;;;;7.01;57.71;95760.91;5111252;28;20222;-67
2024/01/28 04:59:04;;;;;;;5.13;2.40;;;;;;;6.97;57.85;95760.28;5110569;28;20201;-67
2024/01/28 05:01:32;;;;;;;6.40;2.53;;;;;;;6.95;57.79;95762.09;5111275;28;20753;-68
2024/01/28 05:04:00;;;;;;;3.67;2.47;;;;;;;6.93;57.78;95763.91;5110128;28;20196;-68
2024/01/28 05:06:34;;;;;;;5.17;2.80;;;;;;;6.90;57.77;95768.34;5110262;28;20227;-64
2024/01/28 05:09:01;;;;;;;4.47;2.97;;;;;;;6.87;57.72;95764.25;5109933;28;20199;-67
2024/01/28 05:11:28;;;;;;;3.97;2.70;;;;;;;6.85;57.90;95771.16;5110535;28;20537;-66
2024/01/28 05:13:55;;;;;;;3.00;2.70;;;;;;;6.83;58.01;95772.16;5109853;28;20782;-66
2024/01/28 05:16:23;;;;;;;2.80;2.60;;;;;;;6.81;57.92;95771.41;5110287;28;20197;-66
2024/01/28 05:18:50;;;;;;;4.37;2.70;;;;;;;6.78;57.92;95769.88;5110316;28;20211;-63
2024/01/28 05:21:16;;;;;;;3.50;2.50;;;;;;;6.32;57.80;95696.25;5110004;28;20196;-67
2024/01/28 05:23:43;;;;;;;6.93;2.77;;;;;;;6.73;57.99;95772.66;5110184;28;20192;-64
2024/01/28 05:26:10;;;;;;;3.87;2.93;;;;;;;6.71;58.09;95777.03;5109376;28;20257;-66
2024/01/28 05:28:37;;;;;;;4.20;2.97;;;;;;;6.69;58.16;95778.84;5109641;28;20276;-65
2024/01/28 05:31:04;;;;;;;4.47;2.97;;;;;;;6.67;58.11;95790.00;5109360;28;20621;-67
2024/01/28 05:33:34;;;;;;;4.57;2.50;;;;;;;6.65;58.14;95786.72;5110001;28;20612;-66
2024/01/28 05:36:01;;;;;;;3.80;2.77;;;;;;;6.63;58.10;95793.63;5109542;28;20734;-65
2024/01/28 05:38:29;;;;;;;3.20;2.70;;;;;;;6.48;58.04;95780.88;5109026;28;20189;-67
2024/01/28 05:40:55;;;;;;;4.47;2.80;;;;;;;6.27;58.12;95743.97;5109817;28;20193;-65
2024/01/28 05:43:22;;;;;;;4.07;2.93;;;;;;;6.48;58.21;95780.88;5110034;28;20257;-66
2024/01/28 05:45:49;;;;;;;5.00;3.20;;;;;;;6.57;58.23;95799.06;5109854;28;20216;-69
2024/01/28 05:48:16;;;;;;;4.93;2.60;;;;;;;6.56;58.29;95808.38;5109261;28;20233;-69
2024/01/28 05:50:44;;;;;;;3.00;2.70;;;;;;;6.56;58.25;95810.09;5109729;28;20192;-68
2024/01/28 05:53:11;;;;;;;3.47;2.47;;;;;;;5.92;58.32;95715.44;5110432;28;20235;-70
2024/01/28 05:55:37;;;;;;;5.10;3.20;;;;;;;6.54;58.12;95823.72;5109379;28;20212;-68
2024/01/28 05:58:04;;;;;;;5.30;3.20;;;;;;;6.49;58.27;95814.72;5109742;28;20221;-67
2024/01/28 06:00:31;;;;;;;4.17;3.00;;;;;;;6.08;58.19;95748.41;5110293;28;20177;-66
2024/01/28 06:02:58;;;;;;;3.60;2.87;;;;;;;6.57;58.27;95822.75;5109761;28;20192;-66
2024/01/28 06:05:25;;;;;;;5.90;3.30;;;;;;;6.56;58.34;95821.09;5109958;28;20204;-67
2024/01/28 06:07:53;;;;;;;6.33;2.70;;;;;;;6.62;58.23;95825.03;5109260;28;20284;-65
2024/01/28 06:10:20;;;;;;;5.20;2.50;;;;;;;6.53;58.28;95798.41;5109521;28;20249;-68
2024/01/28 06:12:47;;;;;;;4.03;3.23;;;;;;;6.71;58.16;95827.06;5109525;28;20216;-67
2024/01/28 06:15:14;;;;;;;3.13;2.83;;;;;;;6.77;58.17;95830.06;5109514;28;20193;-66
2024/01/28 06:17:40;;;;;;;5.97;2.93;;;;;;;6.81;57.94;95832.44;5109453;28;20196;-63
2024/01/28 06:20:08;;;;;;;4.17;2.60;;;;;;;6.87;58.07;95829.56;5109604;28;20196;-68
2024/01/28 06:22:36;;;;;;;6.03;3.57;;;;;;;7.01;57.99;95827.84;5113156;28;20258;-66
2024/01/28 06:25:07;;;;;;;6.20;2.60;;;;;;;7.10;57.91;95829.06;5113617;28;20630;-70
2024/01/28 06:27:33;;;;;;;3.80;3.43;;;;;;;7.18;57.86;95836.25;5113184;28;20621;-68
2024/01/28 06:30:00;;;;;;;5.07;2.90;;;;;;;7.08;57.75;95818.16;5114256;28;20189;-65
2024/01/28 06:32:27;;;;;;;4.20;3.30;;;;;;;7.11;57.77;95820.50;5113961;28;20297;-68
2024/01/28 06:34:54;;;;;;;3.47;2.50;;;;;;;7.29;57.73;95831.34;5113682;28;20184;-67
2024/01/28 06:37:20;;;;;;;8.83;3.50;;;;;;;7.40;57.75;95823.91;5113179;28;20189;-67
2024/01/28 06:39:51;;;;;;;4.00;3.07;;;;;;;7.58;57.26;95839.00;5113229;28;20196;-65
2024/01/28 06:42:20;;;;;;;5.80;3.20;;;;;;;7.73;57.19;95849.09;5113324;28;20192;-67
2024/01/28 06:44:47;;;;;;;3.47;3.03;;;;;;;7.79;57.25;95843.63;5113188;28;20196;-65
2024/01/28 06:47:14;;;;;;;5.27;2.97;;;;;;;7.85;57.25;95854.34;5113303;28;20286;-62
2024/01/28 06:49:41;;;;;;;5.87;3.10;;;;;;;7.73;57.00;95833.00;5113140;28;20685;-64
2024/01/28 06:52:07;;;;;;;4.30;3.00;;;;;;;7.95;56.89;95869.00;5113590;28;20250;-68
2024/01/28 06:54:34;;;;;;;4.27;2.87;;;;;;;8.00;56.89;95861.88;5112827;28;20185;-69
2024/01/28 06:57:01;;;;;;;7.83;2.90;;;;;;;8.05;56.85;95866.69;5113243;28;20700;-67
2024/01/28 06:59:29;;;;;;;2.93;2.70;;;;;;;8.08;56.83;95866.53;5113334;28;20299;-65
2024/01/28 07:01:56;;;;;;;3.80;2.70;;;;;;;8.12;56.75;95872.22;5113556;28;20276;-68
2024/01/28 07:04:23;;;;;;;6.03;3.57;;;;;;;8.08;56.74;95861.41;5112698;28;20279;-67
2024/01/28 07:06:50;;;;;;;5.13;3.20;;;;;;;8.17;56.56;95871.06;5103747;28;20198;-69
2024/01/28 07:09:18;;;;;;;6.07;3.30;;;;;;;8.02;56.56;95838.84;5090929;28;20198;-67
2024/01/28 07:11:45;;;;;;;3.53;3.10;;;;;;;8.23;56.57;95865.56;5090879;28;20209;-66
2024/01/28 07:14:11;;;;;;;3.57;3.10;;;;;;;8.24;56.14;95874.03;5103913;28;20185;-67
2024/01/28 07:16:40;;;;;;;4.13;3.10;;;;;;;8.25;56.40;95884.13;5113177;28;20189;-67
2024/01/28 07:19:06;;;;;;;3.50;2.97;;;;;;;8.28;56.23;95880.56;5119705;28;20197;-67
2024/01/28 07:21:33;;;;;;;2.93;2.63;;;;;;;8.20;56.40;95868.31;5111414;28;20188;-68
2024/01/28 07:24:00;;;;;;;5.03;3.07;;;;;;;8.32;56.30;95886.31;5110419;28;20192;-65
2024/01/28 07:26:27;;;;;;;6.93;3.20;;;;;;;8.35;56.32;95888.66;5110655;28;20196;-66
2024/01/28 07:28:53;;;;;;;5.27;3.93;;;;;;;8.36;56.13;95867.38;5110647;28;20181;-68
2024/01/28 07:31:20;;;;;;;7.23;3.63;;;;;;;8.50;56.29;95875.81;5110029;28;20196;-64
2024/01/28 07:33:49;;;;;;;4.50;3.53;;;;;;;8.69;58.80;95883.13;5109153;28;20604;-67
2024/01/28 07:36:16;;;;;;;3.97;3.27;;;;;;;8.86;60.74;95882.06;5109959;28;20659;-69
2024/01/28 07:38:43;;;;;;;8.73;4.13;;;;;;;9.04;62.73;95877.50;5110126;28;20189;-70
2024/01/28 07:41:14;;;;;;;5.23;3.83;;;;;;;9.18;63.08;95876.63;5109717;28;20185;-66
2024/01/28 07:43:40;;;;;;;13.20;3.23;;;;;;;9.38;63.99;95878.69;5110001;28;20177;-68
2024/01/28 07:46:08;;;;;;;5.47;3.77;;;;;;;9.48;64.41;95877.16;5109938;28;20665;-67
2024/01/28 07:48:34;;;;;;;6.73;3.93;;;;;;;9.70;63.86;95883.38;5110124;28;20202;-68
2024/01/28 07:51:03;;;;;;;4.50;3.40;;;;;;;9.88;63.94;95884.69;5109885;28;20189;-63
2024/01/28 07:53:30;;;;;;;8.67;3.63;;;;;;;10.04;63.82;95897.25;5109724;28;20996;-68
2024/01/28 07:55:57;;;;;;;7.73;3.40;;;;;;;10.19;63.35;95896.22;5109758;28;20185;-67
2024/01/28 07:58:24;;;;;;;4.60;3.60;;;;;;;10.30;62.70;95892.94;5109820;28;20196;-65
2024/01/28 08:00:51;;;;;;;6.10;3.67;;;;;;;10.41;62.07;95895.56;5109373;28;20871;-65
2024/01/28 08:03:17;;;;;;;4.30;3.90;;;;;;;10.46;61.76;95883.28;5109554;28;20189;-67
2024/01/28 08:05:44;;;;;;;3.47;3.17;;;;;;;10.68;61.05;95897.94;5109234;28;20185;-68
2024/01/28 08:08:12;;;;;;;5.17;3.30;;;;;;;10.96;62.03;95883.16;5109968;28;20192;-69
2024/01/28 08:10:39;;;;;;;4.30;3.43;;;;;;;11.21;68.39;95864.28;5109724;28;20193;-66
2024/01/28 08:13:06;;;;;;;4.57;2.83;;;;;;;11.69;73.25;95888.00;5109619;28;20240;-63
2024/01/28 08:15:33;;;;;;;4.40;2.67;;;;;;;12.02;75.70;95886.41;5108775;28;20280;-68
2024/01/28 08:18:00;;;;;;;5.13;3.23;;;;;;;12.35;74.37;95893.28;5108963;28;20185;-67
2024/01/28 08:20:27;;;;;;;4.77;3.13;;;;;;;12.53;70.16;95899.53;5109181;28;20200;-67
2024/01/28 08:22:54;;;;;;;3.27;2.80;;;;;;;12.46;67.11;95866.78;5109021;28;20185;-66
2024/01/28 08:25:23;;;;;;;4.27;2.87;;;;;;;12.74;68.81;95878.25;5109475;28;20523;-68
2024/01/28 08:27:50;;;;;;;3.87;2.90;;;;;;;13.11;70.25;95906.94;5109542;28;20212;-70
2024/01/28 08:30:22;;;;;;;4.63;3.00;;;;;;;13.29;69.56;95905.47;5108900;28;20189;-67
2024/01/28 08:32:49;;;;;;;5.30;3.80;;;;;;;13.41;66.10;95908.81;5109324;28;20252;-68
2024/01/28 08:35:16;;;;;;;4.33;3.60;;;;;;;13.42;63.91;95913.00;5108791;28;20270;-68
2024/01/28 08:37:43;;;;;;;6.10;3.47;;;;;;;13.18;60.62;95884.97;5109597;28;20352;-71
2024/01/28 08:40:10;;;;;;;4.20;3.80;;;;;;;13.34;58.57;95922.28;5108895;28;20197;-68
2024/01/28 08:42:38;;;;;;;4.90;2.93;;;;;;;13.27;57.40;95914.25;5108785;28;20687;-68
2024/01/28 08:45:06;;;;;;;8.77;3.70;;;;;;;13.20;56.35;95919.03;5107698;28;20542;-69
2024/01/28 08:47:33;;;;;;;5.17;3.17;;;;;;;13.15;55.30;95910.06;5108800;28;20204;-70
2024/01/28 08:50:00;;;;;;;5.73;3.43;;;;;;;13.07;55.11;95918.38;5107179;28;20226;-66
2024/01/28 08:52:26;;;;;;;5.43;3.37;;;;;;;13.03;54.76;95924.72;5107972;28;20224;-68
2024/01/28 08:54:54;;;;;;;5.00;2.77;;;;;;;12.85;54.65;95903.88;5108223;28;20215;-76
2024/01/28 08:57:21;;;;;;;8.23;3.30;;;;;;;12.94;54.52;95926.25;5108703;28;20225;-73
2024/01/28 08:59:49;;;;;;;5.80;3.10;;;;;;;12.86;54.51;95914.97;5108451;28;20186;-70
2024/01/28 09:02:16;;;;;;;7.10;3.27;;;;;;;12.99;54.65;95934.41;5108973;28;20192;-76
2024/01/28 09:04:43;;;;;;;7.90;3.73;;;;;;;13.00;54.93;95930.91;5108309;28;20197;-74
2024/01/28 09:07:09;;;;;;;6.30;2.90;;;;;;;12.84;55.10;95911.72;5111276;28;20189;-73
2024/01/28 09:09:36;;;;;;;3.47;3.17;;;;;;;12.58;55.15;95880.41;5111228;28;20196;-75
2024/01/28 09:12:04;;;;;;;5.60;3.03;;;;;;;12.92;55.32;95938.41;5110936;28;20197;-73
2024/01/28 09:14:31;;;;;;;6.87;3.33;;;;;;;12.89;55.13;95940.41;5111572;28;20185;-78
2024/01/28 09:16:59;;;;;;;5.70;3.17;;;;;;;12.88;55.09;95942.16;5111091;28;20254;-74
2024/01/28 09:19:26;;;;;;;4.50;2.87;;;;;;;12.90;55.10;95935.13;5110982;28;20185;-74
2024/01/28 09:21:53;;;;;;;4.10;3.10;;;;;;;12.92;55.02;95935.84;5110916;28;20257;-74
2024/01/28 09:24:19;;;;;;;5.37;3.40;;;;;;;12.93;54.84;95939.22;5111107;28;20207;-72
2024/01/28 09:26:46;;;;;;;6.97;2.90;;;;;;;12.93;54.70;95940.03;5110537;28;20204;-73
2024/01/28 09:29:14;;;;;;;5.63;3.00;;;;;;;12.94;54.55;95935.72;5110793;28;20200;-72
2024/01/28 09:31:44;;;;;;;3.53;3.07;;;;;;;12.93;54.32;95934.91;5110525;28;20242;-74
2024/01/28 09:34:13;;;;;;;3.00;2.63;;;;;;;12.95;53.98;95924.50;5110395;28;20256;-74
2024/01/28 09:36:39;;;;;;;3.20;2.90;;;;;;;12.75;53.71;95897.84;5110580;28;20192;-73
2024/01/28 09:39:06;;;;;;;2.87;2.57;;;;;;;12.99;53.81;95936.16;5110871;28;20188;-73
2024/01/28 09:41:43;;;;;;;9.07;2.83;;;;;;;12.84;53.61;95907.38;5110775;28;20177;-75
2024/01/28 09:44:09;;;;;;;3.67;2.60;;;;;;;13.02;53.63;95931.59;5110693;28;20199;-74
2024/01/28 09:46:37;;;;;;;3.33;2.47;;;;;;;13.01;53.66;95935.13;5110415;28;20185;-74
2024/01/28 09:49:05;;;;;;;3.20;2.90;;;;;;;12.93;53.05;95916.94;5110523;28;20193;-73
2024/01/28 09:51:33;;;;;;;4.37;2.87;;;;;;;13.04;53.07;95928.94;5111753;28;20193;-73
2024/01/28 09:54:00;;;;;;;3.60;2.80;;;;;;;13.06;52.85;95933.00;5112339;28;20213;-74
2024/01/28 09:56:28;;;;;;;4.83;2.93;;;;;;;12.98;52.61;95914.81;5114877;28;20236;-73
2024/01/28 09:58:56;;;;;;;4.73;2.80;;;;;;;13.07;52.52;95926.91;5121005;28;20222;-76
2024/01/28 10:01:26;;;;;;;4.67;2.90;;;;;;;13.08;52.24;95932.84;5112146;28;20185;-78
2024/01/28 10:03:55;;;;;;;2.93;2.73;;;;;;;13.10;52.17;95928.44;5110673;28;20189;-76
2024/01/28 10:06:22;;;;;;;4.63;2.93;;;;;;;13.09;52.17;95921.66;5110490;28;20177;-75
2024/01/28 10:08:50;;;;;;;6.57;2.80;;;;;;;13.13;52.19;95922.25;5109772;28;20188;-74
2024/01/28 10:11:17;;;;;;;2.70;2.40;;;;;;;13.09;52.06;95918.28;5110292;28;20626;-74
2024/01/28 10:13:43;;;;;;;7.10;3.37;;;;;;;13.14;51.90;95921.28;5109066;28;20305;-76
2024/01/28 10:16:10;;;;;;;5.30;3.03;;;;;;;12.98;51.47;95898.59;5109788;28;20200;-78
2024/01/28 10:18:37;;;;;;;8.47;3.03;;;;;;;13.15;51.52;95922.91;5109727;28;20242;-79
2024/01/28 10:21:04;;;;;;;3.40;2.83;;;;;;;13.09;51.57;95921.66;5109597;28;20185;-78
2024/01/28 10:23:36;;;;;;;2.63;2.40;;;;;;;13.14;51.24;95919.53;5109455;28;20657;-79
2024/01/28 10:26:06;;;;;;;5.37;2.97;;;;;;;13.14;51.28;95916.16;5109928;28;20654;-72
2024/01/28 10:28:33;;;;;;;4.17;3.47;;;;;;;13.03;51.02;95901.59;5109533;28;20189;-74
2024/01/28 10:30:59;;;;;;;7.03;3.00;;;;;;;13.13;51.07;95923.06;5109895;28;20192;-74
2024/01/28 10:33:27;;;;;;;4.60;2.83;;;;;;;13.14;51.08;95913.59;5109561;28;20292;-73
2024/01/28 10:35:54;;;;;;;4.27;2.93;;;;;;;13.03;51.10;95910.09;5109682;28;20220;-73
2024/01/28 10:38:21;;;;;;;8.40;3.20;;;;;;;13.06;50.91;95907.31;5109358;28;20200;-73
2024/01/28 10:40:50;;;;;;;5.43;2.87;;;;;;;13.14;50.80;95921.28;5109788;28;20541;-72
2024/01/28 10:43:26;;;;;;;6.03;3.80;;;;;;;13.14;50.59;95911.84;5109805;28;20192;-72
2024/01/28 10:45:56;;;;;;;3.53;2.93;;;;;;;13.14;50.61;95913.59;5109883;28;20181;-73
2024/01/28 10:48:24;;;;;;;6.07;3.10;;;;;;;13.14;50.80;95908.47;5109895;28;20185;-74
2024/01/28 10:50:52;;;;;;;3.53;3.23;;;;;;;13.12;50.51;95916.25;5110010;28;20234;-74
2024/01/28 10:53:19;;;;;;;4.13;3.20;;;;;;;13.15;50.56;95908.31;5111024;28;20220;-72
2024/01/28 10:55:47;;;;;;;5.27;3.13;;;;;;;12.93;50.55;95867.31;5110745;28;20295;-73
2024/01/28 10:58:16;;;;;;;3.13;2.87;;;;;;;13.17;50.49;95903.06;5110078;28;20619;-72
2024/01/28 11:00:44;;;;;;;4.53;3.00;;;;;;;13.18;50.63;95907.28;5109450;28;20268;-73
2024/01/28 11:03:12;;;;;;;3.83;2.97;;;;;;;13.18;50.22;95899.56;5109685;28;20288;-73
2024/01/28 11:05:40;;;;;;;4.70;2.90;;;;;;;13.20;50.16;95905.38;5109335;28;20638;-73
2024/01/28 11:08:07;;;;;;;4.00;3.40;;;;;;;13.23;50.29;95900.84;5110615;28;20185;-73
2024/01/28 11:10:34;;;;;;;3.47;2.90;;;;;;;13.17;50.30;95893.63;5112776;28;20216;-76
2024/01/28 11:13:03;;;;;;;3.37;2.90;;;;;;;13.00;50.16;95860.78;5113207;28;20200;-74
2024/01/28 11:15:31;;;;;;;4.57;3.10;;;;;;;13.21;50.07;95902.72;5112895;28;20185;-73
2024/01/28 11:18:01;;;;;;;4.90;3.20;;;;;;;12.79;49.94;95841.00;5113229;28;20349;-75
2024/01/28 11:20:30;;;;;;;3.87;3.17;;;;;;;13.16;50.08;95902.25;5112409;28;20192;-73
2024/01/28 11:22:59;;;;;;;5.37;3.87;;;;;;;13.13;50.05;95897.38;5113107;28;20266;-75
2024/01/28 11:25:27;;;;;;;4.63;3.30;;;;;;;13.09;50.09;95898.56;5113709;28;20209;-74
2024/01/28 11:28:00;;;;;;;7.17;3.40;;;;;;;13.00;50.23;95891.59;5113728;28;20177;-73
2024/01/28 11:30:27;;;;;;;4.83;3.07;;;;;;;12.73;50.05;95856.06;5112381;28;20196;-74
2024/01/28 11:32:57;;;;;;;4.37;2.87;;;;;;;12.76;50.00;95868.66;5113006;28;20189;-73
2024/01/28 11:35:26;;;;;;;3.13;2.87;;;;;;;12.89;49.80;95901.88;5112275;28;20585;-76
2024/01/28 11:37:56;;;;;;;3.77;3.00;;;;;;;12.61;50.20;95862.16;5112872;28;20196;-75
2024/01/28 11:40:24;;;;;;;4.20;3.30;;;;;;;12.56;49.94;95862.53;5112501;28;20289;-73